Time;durP1;ratioP1;P1;durP2;ratioP2;P2;SDS_P1;SDS_P2;PMS_P1;PMS_P2;Temp;Humidity;BMP_temperature;BMP_pressure;BME280_temperature;BME280_humidity;BME280_pressure;Samples;Min_cycle;Max_cycle;Signal;HPM_P1;HPM_P2
2024/02/25 00:00:46;;;;;;;50.30;27.40;;;3.90;99.90;;;;;;5155486;27;20201;-79
2024/02/25 00:03:34;;;;;;;49.23;26.37;;;3.90;99.90;;;;;;5155408;27;20208;-80
2024/02/25 00:06:21;;;;;;;51.83;26.97;;;3.80;99.90;;;;;;5154022;27;20651;-80
2024/02/25 00:09:09;;;;;;;50.70;26.13;;;3.70;99.90;;;;;;5156269;27;20202;-79
2024/02/25 00:11:56;;;;;;;50.63;25.73;;;3.80;99.90;;;;;;5155615;27;20216;-80
2024/02/25 00:14:44;;;;;;;50.10;25.83;;;3.70;99.90;;;;;;5154272;27;20196;-80
2024/02/25 00:17:31;;;;;;;49.13;25.30;;;3.80;99.90;;;;;;5153802;27;20196;-80
2024/02/25 00:20:19;;;;;;;49.37;25.33;;;3.90;99.90;;;;;;5155301;27;20644;-80
2024/02/25 00:23:06;;;;;;;44.13;24.17;;;3.90;99.90;;;;;;5155006;27;20197;-79
2024/02/25 00:25:53;;;;;;;48.23;24.63;;;3.90;99.90;;;;;;5154364;27;20188;-79
2024/02/25 00:28:41;;;;;;;45.23;24.27;;;4.00;99.90;;;;;;5155708;27;20191;-80
2024/02/25 00:31:28;;;;;;;47.70;23.80;;;4.00;99.90;;;;;;5155079;27;20358;-80
2024/02/25 00:34:16;;;;;;;46.00;23.83;;;4.10;99.90;;;;;;5153828;27;20261;-80
2024/02/25 00:37:03;;;;;;;41.27;23.97;;;4.00;99.90;;;;;;5154886;27;20282;-80
2024/02/25 00:39:50;;;;;;;43.27;22.87;;;4.00;99.90;;;;;;5154973;27;20216;-81
2024/02/25 00:42:38;;;;;;;42.17;21.33;;;4.10;99.90;;;;;;5155176;27;20665;-81
2024/02/25 00:45:25;;;;;;;38.70;21.77;;;4.20;99.90;;;;;;5153855;27;20303;-80
2024/02/25 00:48:13;;;;;;;36.50;20.63;;;4.20;99.90;;;;;;5154853;27;20192;-81
2024/02/25 00:51:00;;;;;;;38.03;21.07;;;4.20;99.90;;;;;;5154654;27;20364;-81
2024/02/25 00:53:48;;;;;;;36.57;20.70;;;4.20;99.90;;;;;;5154215;27;20199;-81
2024/02/25 00:56:35;;;;;;;41.80;21.83;;;4.20;99.90;;;;;;5154602;27;20192;-81
2024/02/25 00:59:22;;;;;;;38.03;20.97;;;4.20;99.90;;;;;;5154431;27;20683;-80
2024/02/25 01:02:10;;;;;;;35.07;19.77;;;4.10;99.90;;;;;;5154570;27;20198;-81
2024/02/25 01:04:57;;;;;;;36.80;20.00;;;4.20;99.90;;;;;;5154210;27;20282;-80
2024/02/25 01:07:44;;;;;;;36.80;19.40;;;4.20;99.90;;;;;;5154322;27;20228;-80
2024/02/25 01:10:32;;;;;;;38.20;21.03;;;4.20;99.90;;;;;;5154221;27;20229;-81
2024/02/25 01:13:19;;;;;;;34.80;19.23;;;4.10;99.90;;;;;;5154205;27;20608;-81
2024/02/25 01:16:07;;;;;;;36.80;19.70;;;4.20;99.90;;;;;;5153880;27;20203;-80
2024/02/25 01:18:56;;;;;;;36.53;20.20;;;4.20;99.90;;;;;;5153830;27;20570;-80
2024/02/25 01:21:44;;;;;;;34.77;19.90;;;4.20;99.90;;;;;;5153628;27;20192;-81
2024/02/25 01:24:32;;;;;;;33.33;19.27;;;4.30;99.90;;;;;;5154491;27;20196;-81
2024/02/25 01:27:19;;;;;;;36.83;20.37;;;4.30;99.90;;;;;;5154183;27;20194;-84
2024/02/25 01:30:10;;;;;;;37.43;21.03;;;4.40;99.90;;;;;;5153917;27;20191;-83
2024/02/25 01:32:57;;;;;;;41.20;22.03;;;4.40;99.90;;;;;;5152968;27;20212;-83
2024/02/25 01:35:45;;;;;;;41.53;21.83;;;4.30;99.90;;;;;;5152724;27;20671;-83
2024/02/25 01:38:32;;;;;;;38.53;21.93;;;4.30;99.90;;;;;;5153877;27;20203;-84
2024/02/25 01:41:20;;;;;;;42.00;23.03;;;4.30;99.90;;;;;;5153830;27;20293;-84
2024/02/25 01:44:07;;;;;;;43.13;23.60;;;4.30;99.90;;;;;;5153756;27;20196;-79
2024/02/25 01:46:55;;;;;;;39.90;23.00;;;4.20;99.90;;;;;;5154045;27;20195;-88
2024/02/25 01:49:43;;;;;;;43.73;23.33;;;4.20;99.90;;;;;;5153271;27;20294;-87
2024/02/25 01:52:32;;;;;;;42.77;23.40;;;4.10;99.90;;;;;;5152685;27;20247;-88
2024/02/25 01:55:24;;;;;;;41.53;23.53;;;4.20;99.90;;;;;;5153063;27;20291;-86
2024/02/25 01:58:13;;;;;;;41.50;23.53;;;4.10;99.90;;;;;;5154768;27;20199;-85
2024/02/25 02:01:00;;;;;;;41.83;22.93;;;4.10;99.90;;;;;;5151712;27;20208;-85
2024/02/25 02:03:48;;;;;;;43.70;23.43;;;4.20;99.90;;;;;;5153874;27;20214;-86
2024/02/25 02:06:36;;;;;;;43.60;24.13;;;4.00;99.90;;;;;;5151828;27;20192;-86
2024/02/25 02:09:23;;;;;;;46.60;25.13;;;4.10;99.90;;;;;;5153085;27;20316;-86
2024/02/25 02:12:10;;;;;;;46.93;24.63;;;4.00;99.90;;;;;;5152013;27;20214;-85
2024/02/25 02:14:58;;;;;;;47.17;24.73;;;3.90;99.90;;;;;;5153309;27;20595;-86
2024/02/25 02:17:46;;;;;;;46.93;25.43;;;3.90;99.90;;;;;;5151848;27;20187;-85
2024/02/25 02:20:33;;;;;;;45.40;24.57;;;3.80;99.90;;;;;;5153240;27;20281;-85
2024/02/25 02:23:21;;;;;;;46.57;24.73;;;3.80;99.90;;;;;;5152219;27;20684;-85
2024/02/25 02:26:08;;;;;;;45.53;25.27;;;3.80;99.90;;;;;;5152249;27;20190;-85
2024/02/25 02:28:56;;;;;;;49.23;25.83;;;3.90;99.90;;;;;;5153177;27;20189;-86
2024/02/25 02:31:43;;;;;;;49.97;26.20;;;3.90;99.90;;;;;;5152313;27;20242;-85
2024/02/25 02:34:31;;;;;;;52.00;26.27;;;4.00;99.90;;;;;;5153110;27;20219;-85
2024/02/25 02:37:19;;;;;;;50.03;26.30;;;4.10;99.90;;;;;;5152059;27;20781;-85
2024/02/25 02:40:07;;;;;;;49.87;27.13;;;4.10;99.90;;;;;;5151875;27;20646;-87
2024/02/25 02:42:55;;;;;;;49.97;26.50;;;4.10;99.90;;;;;;5152764;27;20199;-86
2024/02/25 02:45:43;;;;;;;50.30;26.17;;;4.10;99.90;;;;;;5152634;27;20188;-85
2024/02/25 02:48:30;;;;;;;51.77;26.13;;;4.10;99.90;;;;;;5152815;27;20213;-85
2024/02/25 02:51:18;;;;;;;48.23;26.57;;;4.10;99.90;;;;;;5152936;27;20246;-86
2024/02/25 02:54:05;;;;;;;52.07;26.90;;;4.10;99.90;;;;;;5151386;27;20244;-85
2024/02/25 02:56:53;;;;;;;50.13;26.43;;;4.10;99.90;;;;;;5151596;27;20184;-85
2024/02/25 02:59:40;;;;;;;52.37;26.47;;;4.10;99.90;;;;;;5151773;27;20682;-85
2024/02/25 03:02:28;;;;;;;54.37;27.70;;;4.10;99.90;;;;;;5152103;27;20227;-85
2024/02/25 03:05:15;;;;;;;49.13;26.47;;;4.10;99.90;;;;;;5152260;27;20207;-86
2024/02/25 03:08:03;;;;;;;48.60;26.13;;;4.10;99.90;;;;;;5152423;27;20191;-86
2024/02/25 03:10:51;;;;;;;54.80;27.67;;;4.00;99.90;;;;;;5152374;27;20195;-85
2024/02/25 03:13:39;;;;;;;53.83;27.43;;;4.00;99.90;;;;;;5151203;27;20214;-85
2024/02/25 03:16:27;;;;;;;49.03;26.73;;;4.00;99.90;;;;;;5151982;27;20566;-82
2024/02/25 03:19:14;;;;;;;50.13;27.17;;;4.00;99.90;;;;;;5152553;27;20652;-82
2024/02/25 03:22:03;;;;;;;49.50;26.70;;;3.90;99.90;;;;;;5152213;27;20189;-81
2024/02/25 03:24:50;;;;;;;49.17;26.63;;;3.90;99.90;;;;;;5152262;27;20647;-81
2024/02/25 03:27:37;;;;;;;51.20;26.07;;;3.90;99.90;;;;;;5152269;27;20195;-82
2024/02/25 03:30:26;;;;;;;54.23;27.40;;;3.80;99.90;;;;;;5152314;27;20196;-81
2024/02/25 03:33:13;;;;;;;53.20;27.33;;;3.80;99.90;;;;;;5152097;27;20195;-81
2024/02/25 03:36:00;;;;;;;52.47;27.47;;;3.70;99.90;;;;;;5150583;27;20195;-81
2024/02/25 03:38:48;;;;;;;53.20;27.53;;;3.80;99.90;;;;;;5151783;27;20599;-81
2024/02/25 03:41:35;;;;;;;53.23;27.67;;;3.80;99.90;;;;;;5152030;27;20651;-82
2024/02/25 03:44:23;;;;;;;52.40;27.03;;;3.80;99.90;;;;;;5152049;27;20272;-81
2024/02/25 03:47:10;;;;;;;48.03;26.00;;;3.80;99.90;;;;;;5151129;27;20826;-83
2024/02/25 03:49:58;;;;;;;50.73;27.30;;;3.90;99.90;;;;;;5152402;27;20290;-82
2024/02/25 03:52:45;;;;;;;49.57;25.37;;;3.90;99.90;;;;;;5151918;27;20211;-83
2024/02/25 03:55:33;;;;;;;47.80;25.80;;;4.00;99.90;;;;;;5152093;27;20196;-82
2024/02/25 03:58:20;;;;;;;46.90;25.37;;;4.00;99.90;;;;;;5155538;27;20188;-81
2024/02/25 04:01:07;;;;;;;45.17;25.13;;;4.00;99.90;;;;;;5155642;27;20197;-82
2024/02/25 04:03:55;;;;;;;50.87;25.70;;;3.90;99.90;;;;;;5155960;27;20222;-81
2024/02/25 04:06:43;;;;;;;45.53;24.80;;;4.00;99.90;;;;;;5155893;27;20188;-82
2024/02/25 04:09:31;;;;;;;45.80;24.67;;;4.10;99.90;;;;;;5155572;27;20195;-81
2024/02/25 04:12:18;;;;;;;49.23;25.33;;;4.00;99.90;;;;;;5155463;27;20219;-82
2024/02/25 04:15:07;;;;;;;45.83;24.77;;;4.00;99.90;;;;;;5155618;27;20191;-82
2024/02/25 04:17:54;;;;;;;49.97;25.97;;;4.00;99.90;;;;;;5154408;27;20194;-81
2024/02/25 04:20:42;;;;;;;46.73;24.97;;;3.90;99.90;;;;;;5154535;27;20195;-82
2024/02/25 04:23:29;;;;;;;47.17;24.23;;;3.90;99.90;;;;;;5155234;27;20195;-76
2024/02/25 04:26:16;;;;;;;46.10;24.53;;;4.00;99.90;;;;;;5153699;27;20248;-76
2024/02/25 04:29:04;;;;;;;46.80;25.63;;;4.00;99.90;;;;;;5155103;27;20284;-77
2024/02/25 04:31:51;;;;;;;45.43;24.17;;;4.00;99.90;;;;;;5153981;27;20215;-77
2024/02/25 04:34:39;;;;;;;48.50;25.57;;;4.00;99.90;;;;;;5154075;27;20212;-78
2024/02/25 04:37:27;;;;;;;42.43;23.67;;;4.00;99.90;;;;;;5155135;27;20193;-76
2024/02/25 04:40:14;;;;;;;43.20;23.33;;;4.00;99.90;;;;;;5155252;27;20203;-81
